Sichem Montreal — 9VLS2 — position and weather

sailwx.info

Track history (hours):
 
Tides and Currents Weather Stations Pressure Air Temp Water Temp Dewpoint Dewpoint Depression Visibility Wind Speed Wind Dir Waves Ship Positions

Sichem Montreal

Last reported at 2014-Jul-31 01:20 UTC. Time now 2014-Jul-31 15:41 UTC.
Position N 01°13' E 103°39'.

Length 128 m; draft 7.2 m.

Type: Ship. MMSI: 565884000.

Date/timePositionNaut miles runAvg speedWind from/ knotsBaromVisibWave heightAir tempDewpointWater temp
2014-Jul-31 01:20N 01°13' E 103°39'5 5.4
2014-Jul-31 00:28N 01°10' E 103°42'8 9.3
2014-Jul-30 23:33N 01°12' E 103°51'1010.0
2014-Jul-30 22:33N 01°15' E 103°60'14 6.8
2014-Jul-30 20:33N 01°07' E 104°11'1 0.4
2014-Jul-30 18:06N 01°07' E 104°10'0 0.0
2014-Jul-30 16:12N 01°07' E 104°10'2 0.1
2014-Jul-29 16:12N 01°05' E 104°09'0 0.1
2014-Jul-29 15:33N 01°05' E 104°09'8 7.5
2014-Jul-29 14:30N 01°13' E 104°09'9 9.6
2014-Jul-29 13:33N 01°21' E 104°04'9 0.3
2014-Jul-28 05:20N 01°25' E 103°56'7 9.6
2014-Jul-28 04:34N 01°22' E 104°03'6 0.4
2014-Jul-27 14:19N 01°19' E 104°08'2 2.1
2014-Jul-27 13:09N 01°16' E 104°07'610.5
2014-Jul-27 12:33N 01°15' E 104°01'1211.5
2014-Jul-27 11:33N 01°10' E 103°50'  
2014-Jul-22 14:06N 01°10' E 103°46'611.2
2014-Jul-22 13:33N 01°12' E 103°52'1212.2
2014-Jul-22 12:33N 01°16' E 104°03'  
Track history (hours):
 
Tides and Currents Weather Stations Pressure Air Temp Water Temp Dewpoint Dewpoint Depression Visibility Wind Speed Wind Dir Waves Ship Positions

Sichem Montreal

Last reported at 2014-Jul-31 01:20 UTC. Time now 2014-Jul-31 15:41 UTC.
Position N 01°13' E 103°39'.

Length 128 m; draft 7.2 m.

Type: Ship. MMSI: 565884000.

Date/timePositionNaut miles runAvg speedWind from/ knotsBaromVisibWave heightAir tempDewpointWater temp
2014-Jul-31 01:20N 01°13' E 103°39'5 5.4
2014-Jul-31 00:28N 01°10' E 103°42'8 9.3
2014-Jul-30 23:33N 01°12' E 103°51'1010.0
2014-Jul-30 22:33N 01°15' E 103°60'14 6.8
2014-Jul-30 20:33N 01°07' E 104°11'1 0.4
2014-Jul-30 18:06N 01°07' E 104°10'0 0.0
2014-Jul-30 16:12N 01°07' E 104°10'2 0.1
2014-Jul-29 16:12N 01°05' E 104°09'0 0.1
2014-Jul-29 15:33N 01°05' E 104°09'8 7.5
2014-Jul-29 14:30N 01°13' E 104°09'9 9.6
2014-Jul-29 13:33N 01°21' E 104°04'9 0.3
2014-Jul-28 05:20N 01°25' E 103°56'7 9.6
2014-Jul-28 04:34N 01°22' E 104°03'6 0.4
2014-Jul-27 14:19N 01°19' E 104°08'2 2.1
2014-Jul-27 13:09N 01°16' E 104°07'610.5
2014-Jul-27 12:33N 01°15' E 104°01'1211.5
2014-Jul-27 11:33N 01°10' E 103°50'  
2014-Jul-22 14:06N 01°10' E 103°46'611.2
2014-Jul-22 13:33N 01°12' E 103°52'1212.2
2014-Jul-22 12:33N 01°16' E 104°03'  

Dump ship's entire track history